Time;durP1;ratioP1;P1;durP2;ratioP2;P2;SDS_P1;SDS_P2;PMS_P1;PMS_P2;Temp;Humidity;BMP_temperature;BMP_pressure;BME280_temperature;BME280_humidity;BME280_pressure;Samples;Min_cycle;Max_cycle;Signal;HPM_P1;HPM_P2
2022/09/21 00:01:08;;;;;;;5.03;2.73;;;9.00;1.00;;;;;;5081636;28;20459;-81
2022/09/21 00:03:36;;;;;;;5.30;3.10;;;9.10;99.90;;;;;;5077708;28;21291;-81
2022/09/21 00:06:06;;;;;;;4.93;2.93;;;9.00;99.90;;;;;;5078800;28;20492;-80
2022/09/21 00:08:35;;;;;;;3.10;2.90;;;9.00;1.00;;;;;;5077774;28;21004;-81
2022/09/21 00:11:04;;;;;;;5.20;3.33;;;8.80;1.00;;;;;;5080708;28;20510;-81
2022/09/21 00:13:36;;;;;;;4.80;3.53;;;9.00;99.90;;;;;;5074613;28;20873;-80
2022/09/21 00:16:06;;;;;;;4.17;3.57;;;9.10;99.90;;;;;;5076227;28;20478;-80
2022/09/21 00:18:35;;;;;;;4.50;2.97;;;9.00;99.90;;;;;;5074858;28;20472;-80
2022/09/21 00:21:07;;;;;;;3.93;3.47;;;9.00;99.90;;;;;;5072984;28;20575;-81
2022/09/21 00:23:36;;;;;;;4.80;3.17;;;9.00;99.90;;;;;;5081701;28;20484;-85
2022/09/21 00:26:07;;;;;;;3.43;3.13;;;9.10;98.60;;;;;;5074103;28;21009;-81
2022/09/21 00:28:39;;;;;;;5.07;4.00;;;9.00;99.90;;;;;;5084330;28;20469;-81
2022/09/21 00:31:09;;;;;;;5.17;3.43;;;9.00;99.90;;;;;;5077307;28;20544;-81
2022/09/21 00:33:38;;;;;;;3.77;3.47;;;9.00;1.00;;;;;;5074670;28;21148;-81
2022/09/21 00:36:08;;;;;;;4.00;3.60;;;9.00;1.00;;;;;;5076689;28;20477;-82
2022/09/21 00:38:37;;;;;;;5.30;4.10;;;8.90;99.90;;;;;;5072997;28;20599;-82
2022/09/21 00:41:06;;;;;;;4.20;3.37;;;9.00;1.00;;;;;;5081612;28;20464;-82
2022/09/21 00:43:39;;;;;;;4.80;3.90;;;9.00;1.00;;;;;;5081564;28;20572;-81
2022/09/21 00:46:15;;;;;;;3.80;3.50;;;8.90;99.90;;;;;;5086168;28;20824;-80
2022/09/21 00:48:45;;;;;;;7.53;3.87;;;9.00;1.00;;;;;;5080875;28;20515;-79
2022/09/21 00:51:14;;;;;;;4.67;3.40;;;9.10;1.00;;;;;;5079234;28;20489;-79
2022/09/21 00:53:43;;;;;;;3.70;3.37;;;9.10;1.00;;;;;;5088285;28;21086;-80
2022/09/21 00:56:12;;;;;;;3.53;2.87;;;8.90;1.00;;;;;;5080601;28;20662;-80
2022/09/21 00:58:46;;;;;;;5.20;3.27;;;8.90;1.00;;;;;;5083944;28;20965;-80
2022/09/21 01:01:16;;;;;;;3.87;3.47;;;8.90;54.50;;;;;;5089364;28;20919;-80
2022/09/21 01:03:46;;;;;;;3.77;3.40;;;8.60;99.90;;;;;;5087691;28;20837;-79
2022/09/21 01:06:15;;;;;;;3.37;3.07;;;8.50;11.00;;;;;;5078199;28;20511;-79
2022/09/21 01:08:46;;;;;;;3.10;2.90;;;8.50;1.00;;;;;;5073963;28;20461;-80
2022/09/21 01:11:34;;;;;;;4.50;3.53;;;8.50;99.90;;;;;;5071929;28;20513;-80
2022/09/21 01:14:24;;;;;;;3.20;2.90;;;8.50;99.90;;;;;;5073728;28;20468;-81
2022/09/21 01:17:02;;;;;;;3.90;3.50;;;8.50;99.90;;;;;;5074893;28;20491;-81
2022/09/21 01:19:48;;;;;;;3.70;3.47;;;8.60;99.90;;;;;;5073886;28;21097;-81
2022/09/21 01:22:26;;;;;;;5.40;3.40;;;8.70;1.00;;;;;;5073877;28;20519;-80
2022/09/21 01:25:08;;;;;;;3.30;3.00;;;8.60;99.90;;;;;;5073767;28;20551;-81
2022/09/21 01:27:53;;;;;;;3.43;3.13;;;8.50;99.90;;;;;;5071704;28;20545;-81
2022/09/21 01:30:24;;;;;;;2.77;2.53;;;8.50;65.70;;;;;;5064757;28;20456;-81
2022/09/21 01:32:56;;;;;;;3.40;3.10;;;8.60;1.00;;;;;;5075398;28;20455;-80
2022/09/21 01:35:28;;;;;;;3.53;3.20;;;8.40;99.90;;;;;;5073035;28;22790;-80
2022/09/21 01:38:02;;;;;;;3.03;2.80;;;8.30;27.70;;;;;;5065110;28;21049;-81
2022/09/21 01:40:33;;;;;;;5.70;3.07;;;8.20;1.00;;;;;;5069859;28;20458;-81
2022/09/21 01:43:05;;;;;;;4.50;3.57;;;8.20;67.10;;;;;;5069655;28;20456;-81
2022/09/21 01:45:40;;;;;;;3.93;3.27;;;8.40;1.00;;;;;;5067622;28;20549;-80
2022/09/21 01:48:10;;;;;;;4.20;3.10;;;8.20;1.00;;;;;;5074811;28;20466;-81
2022/09/21 01:50:41;;;;;;;3.50;3.20;;;8.20;1.00;;;;;;5070238;28;20476;-80
2022/09/21 01:53:13;;;;;;;4.63;3.10;;;8.30;1.00;;;;;;5066038;28;20987;-80
2022/09/21 01:55:45;;;;;;;3.97;3.60;;;8.10;1.00;;;;;;5069603;28;20572;-80
2022/09/21 01:58:19;;;;;;;5.30;3.67;;;8.10;99.90;;;;;;5072270;28;20464;-80
2022/09/21 02:00:54;;;;;;;3.77;3.47;;;8.20;1.00;;;;;;5071386;28;20538;-81
2022/09/21 02:03:27;;;;;;;3.27;2.80;;;8.40;99.90;;;;;;5075393;28;20458;-80
2022/09/21 02:05:57;;;;;;;3.23;2.93;;;8.30;1.00;;;;;;5069033;28;20683;-80
2022/09/21 02:08:26;;;;;;;3.83;3.43;;;8.10;1.00;;;;;;5068102;28;20514;-81
2022/09/21 02:10:55;;;;;;;3.03;2.73;;;8.00;1.00;;;;;;5083473;28;20466;-80
2022/09/21 02:13:26;;;;;;;3.13;2.93;;;8.10;1.00;;;;;;5067475;28;20851;-80
2022/09/21 02:16:06;;;;;;;4.13;3.40;;;8.20;42.30;;;;;;5066113;28;20512;-83
2022/09/21 02:18:43;;;;;;;3.33;3.07;;;8.20;99.90;;;;;;5071984;28;21118;-80
2022/09/21 02:21:23;;;;;;;3.40;2.87;;;8.20;1.00;;;;;;5066769;28;20463;-81
2022/09/21 02:24:01;;;;;;;2.70;2.23;;;8.20;1.00;;;;;;5076566;28;20477;-81
2022/09/21 02:26:34;;;;;;;2.90;2.70;;;8.10;1.00;;;;;;5062453;28;20529;-80
2022/09/21 02:29:11;;;;;;;3.73;2.83;;;8.00;23.80;;;;;;5068869;28;21033;-81
2022/09/21 02:31:49;;;;;;;3.17;2.77;;;7.90;99.90;;;;;;5068280;28;20458;-82
2022/09/21 02:34:22;;;;;;;2.93;2.70;;;7.70;1.00;;;;;;5068200;28;22082;-82
2022/09/21 02:36:55;;;;;;;2.73;2.43;;;7.70;1.00;;;;;;5070096;28;21180;-82
2022/09/21 02:39:33;;;;;;;2.80;2.60;;;7.90;1.00;;;;;;5068455;28;20456;-81
2022/09/21 02:42:06;;;;;;;2.40;2.20;;;7.90;99.90;;;;;;5069078;28;20545;-80
2022/09/21 02:44:40;;;;;;;3.40;2.77;;;7.70;99.90;;;;;;5070937;28;20507;-81
2022/09/21 02:47:16;;;;;;;3.70;2.83;;;7.70;73.70;;;;;;5078733;28;20628;-80
2022/09/21 02:49:50;;;;;;;3.43;3.00;;;7.70;1.00;;;;;;5087636;28;20458;-82
2022/09/21 02:52:19;;;;;;;4.07;3.07;;;7.70;99.90;;;;;;5073376;28;20454;-85
2022/09/21 02:54:51;;;;;;;3.50;2.80;;;7.80;99.90;;;;;;5076682;28;20846;-81
2022/09/21 02:57:22;;;;;;;7.10;3.73;;;7.70;99.90;;;;;;5074002;28;20928;-80
2022/09/21 02:59:51;;;;;;;3.63;2.97;;;7.60;1.00;;;;;;5068291;28;20815;-80
2022/09/21 03:02:21;;;;;;;3.20;2.40;;;7.50;99.90;;;;;;5070525;28;20460;-81
2022/09/21 03:04:50;;;;;;;3.33;2.83;;;7.60;99.90;;;;;;5074336;28;20500;-82
2022/09/21 03:07:18;;;;;;;3.00;2.57;;;7.60;1.00;;;;;;5069333;28;20962;-81
2022/09/21 03:09:46;;;;;;;3.33;3.03;;;7.70;1.00;;;;;;5072977;28;20524;-80
2022/09/21 03:12:14;;;;;;;3.77;3.33;;;7.80;99.90;;;;;;5076792;28;20494;-81
2022/09/21 03:14:43;;;;;;;3.43;3.00;;;7.70;99.90;;;;;;5080370;28;20502;-80
2022/09/21 03:17:11;;;;;;;3.70;2.87;;;7.60;1.00;;;;;;5077806;28;20579;-81
2022/09/21 03:19:40;;;;;;;3.77;2.70;;;7.50;1.00;;;;;;5077066;28;20519;-81
2022/09/21 03:22:08;;;;;;;6.47;4.50;;;7.50;1.00;;;;;;5068214;28;20641;-81
2022/09/21 03:24:46;;;;;;;4.77;4.37;;;7.50;99.90;;;;;;5071844;28;20478;-80
2022/09/21 03:27:15;;;;;;;2.93;2.73;;;7.60;99.90;;;;;;5070895;28;20502;-79
2022/09/21 03:29:43;;;;;;;2.93;2.73;;;7.50;99.90;;;;;;5069977;28;20841;-80
2022/09/21 03:32:12;;;;;;;3.10;2.60;;;7.50;1.00;;;;;;5069192;28;20468;-80
2022/09/21 03:34:42;;;;;;;3.20;2.90;;;7.50;1.00;;;;;;5074725;28;20541;-80
2022/09/21 03:37:10;;;;;;;4.37;2.80;;;7.50;1.00;;;;;;5070518;28;20475;-80
2022/09/21 03:39:39;;;;;;;3.53;3.23;;;7.60;1.00;;;;;;5068871;28;20522;-80
2022/09/21 03:42:08;;;;;;;4.67;3.87;;;7.60;99.90;;;;;;5069007;28;20460;-80
2022/09/21 03:44:37;;;;;;;3.27;2.97;;;7.60;1.00;;;;;;5072967;28;20536;-80
2022/09/21 03:47:06;;;;;;;3.00;2.73;;;7.50;1.00;;;;;;5074817;28;20459;-80
2022/09/21 03:49:34;;;;;;;3.33;3.00;;;7.50;99.90;;;;;;5069267;28;20458;-80
2022/09/21 03:52:04;;;;;;;4.07;3.10;;;7.50;99.90;;;;;;5072933;28;21008;-81
2022/09/21 03:54:33;;;;;;;4.50;3.30;;;7.50;1.00;;;;;;5071898;28;20794;-80
2022/09/21 03:57:01;;;;;;;5.87;3.00;;;7.40;1.00;;;;;;5070308;28;20475;-80
2022/09/21 03:59:29;;;;;;;3.07;2.80;;;7.30;1.00;;;;;;5076672;28;20460;-80
2022/09/21 04:01:57;;;;;;;3.20;2.90;;;7.40;1.00;;;;;;5067878;28;20526;-80
2022/09/21 04:04:25;;;;;;;3.10;2.70;;;7.30;99.90;;;;;;5067687;28;20486;-81
2022/09/21 04:06:54;;;;;;;3.20;3.00;;;7.30;99.90;;;;;;5073934;28;20925;-80
2022/09/21 04:09:23;;;;;;;5.00;3.30;;;7.40;99.90;;;;;;5067569;28;21007;-81
2022/09/21 04:11:52;;;;;;;4.20;3.13;;;7.30;99.90;;;;;;5066356;28;20486;-82
2022/09/21 04:14:21;;;;;;;3.50;2.87;;;7.20;1.00;;;;;;5070131;28;20481;-79
2022/09/21 04:16:49;;;;;;;4.70;3.67;;;7.10;99.90;;;;;;5071289;28;20473;-80
2022/09/21 04:19:18;;;;;;;4.07;2.80;;;7.10;1.00;;;;;;5072713;28;20487;-81
2022/09/21 04:21:46;;;;;;;7.73;3.10;;;7.20;99.90;;;;;;5068626;28;20531;-84
2022/09/21 04:24:14;;;;;;;4.23;3.27;;;7.20;99.90;;;;;;5078673;28;20505;-81
2022/09/21 04:26:44;;;;;;;4.50;3.60;;;7.30;46.30;;;;;;5082394;28;20530;-80
2022/09/21 04:29:12;;;;;;;3.80;3.50;;;7.40;99.90;;;;;;5073513;28;20961;-80
2022/09/21 04:31:41;;;;;;;5.63;3.87;;;7.40;99.90;;;;;;5070908;28;20472;-80
2022/09/21 04:34:13;;;;;;;3.73;3.43;;;7.30;99.90;;;;;;5071332;28;20568;-80
2022/09/21 04:36:41;;;;;;;4.33;3.57;;;7.20;1.00;;;;;;5069859;28;20980;-80
2022/09/21 04:39:09;;;;;;;4.10;3.10;;;7.30;1.00;;;;;;5071617;28;20459;-80
2022/09/21 04:41:37;;;;;;;4.40;3.87;;;7.20;1.00;;;;;;5071093;28;20460;-80
2022/09/21 04:44:07;;;;;;;4.93;3.50;;;7.20;15.90;;;;;;5083852;28;20993;-80
2022/09/21 04:46:35;;;;;;;3.50;3.17;;;7.40;99.90;;;;;;5082550;28;20460;-80
2022/09/21 04:49:03;;;;;;;4.33;3.60;;;7.30;94.60;;;;;;5086181;28;20549;-78
2022/09/21 04:51:31;;;;;;;3.60;3.30;;;7.10;99.90;;;;;;5086870;28;20542;-79
2022/09/21 04:54:00;;;;;;;4.30;3.93;;;7.10;1.00;;;;;;5079467;28;20472;-78
2022/09/21 04:56:28;;;;;;;2.93;2.63;;;7.10;99.90;;;;;;5077931;28;20442;-77
2022/09/21 04:58:56;;;;;;;4.20;3.80;;;7.10;99.90;;;;;;5072656;28;20496;-77
2022/09/21 05:01:26;;;;;;;4.50;3.20;;;7.10;1.00;;;;;;5075474;28;20462;-79
2022/09/21 05:03:57;;;;;;;4.60;3.80;;;7.00;99.90;;;;;;5071431;28;20481;-77
2022/09/21 05:06:25;;;;;;;5.13;3.20;;;6.90;1.00;;;;;;5066736;28;20485;-80
2022/09/21 05:11:35;;;;;;;6.17;2.87;;;6.90;1.00;;;;;;5039834;28;20552;-79
2022/09/21 05:14:03;;;;;;;3.83;3.53;;;7.00;1.00;;;;;;5076484;28;21111;-78
2022/09/21 05:16:33;;;;;;;4.23;3.90;;;7.00;1.00;;;;;;5081416;28;20982;-78
2022/09/21 05:19:01;;;;;;;8.00;4.00;;;6.90;1.00;;;;;;5071295;28;20485;-77
2022/09/21 05:21:30;;;;;;;4.10;3.47;;;6.90;1.00;;;;;;5071470;28;20459;-79
2022/09/21 05:23:58;;;;;;;7.50;4.97;;;7.00;1.00;;;;;;5069690;28;20471;-77
2022/09/21 05:26:27;;;;;;;6.27;3.90;;;7.10;99.90;;;;;;5070474;28;20458;-78
2022/09/21 05:28:55;;;;;;;4.03;3.70;;;7.10;99.90;;;;;;5071203;28;20459;-78
2022/09/21 05:31:39;;;;;;;4.43;4.03;;;7.30;87.20;;;;;;5072007;28;20474;-78
2022/09/21 05:34:27;;;;;;;5.90;4.40;;;7.10;99.90;;;;;;5073036;28;20476;-77
2022/09/21 05:37:07;;;;;;;5.17;4.27;;;7.20;99.90;;;;;;5071423;28;21085;-77
2022/09/21 05:39:36;;;;;;;4.63;4.00;;;7.10;99.90;;;;;;5068369;28;20447;-78
2022/09/21 05:42:05;;;;;;;4.83;4.43;;;7.30;1.00;;;;;;5066950;28;20467;-77
2022/09/21 05:44:34;;;;;;;5.60;4.80;;;7.30;99.90;;;;;;5077363;28;20920;-76
2022/09/21 05:47:11;;;;;;;5.33;4.30;;;7.10;1.00;;;;;;5063237;28;20457;-76
2022/09/21 05:49:48;;;;;;;4.83;4.40;;;7.10;1.00;;;;;;5067472;28;20446;-77
2022/09/21 05:52:23;;;;;;;5.93;4.57;;;7.10;1.00;;;;;;5072692;28;20458;-77
2022/09/21 05:54:59;;;;;;;5.77;4.97;;;7.10;1.00;;;;;;5068759;28;21110;-77
2022/09/21 05:57:38;;;;;;;4.93;3.60;;;7.10;1.00;;;;;;5068712;28;20990;-77
2022/09/21 06:00:14;;;;;;;5.63;4.00;;;7.00;99.90;;;;;;5070575;28;20870;-78
2022/09/21 06:03:08;;;;;;;5.33;4.70;;;7.00;99.90;;;;;;5068505;28;20449;-77
2022/09/21 06:05:40;;;;;;;4.57;4.17;;;7.00;55.40;;;;;;5064762;28;20502;-77
2022/09/21 06:08:08;;;;;;;4.40;4.00;;;7.00;99.90;;;;;;5065082;28;20450;-77
2022/09/21 06:10:36;;;;;;;5.43;3.87;;;7.10;1.00;;;;;;5071923;28;20463;-78
2022/09/21 06:13:05;;;;;;;4.30;4.00;;;7.50;1.00;;;;;;5071599;28;20463;-78
2022/09/21 06:15:37;;;;;;;4.47;4.10;;;7.50;99.90;;;;;;5070948;28;20546;-77
2022/09/21 06:18:06;;;;;;;5.00;4.50;;;7.70;99.90;;;;;;5067582;28;20724;-78
2022/09/21 06:20:35;;;;;;;4.37;3.87;;;7.70;99.90;;;;;;5071843;28;20846;-77
2022/09/21 06:23:05;;;;;;;4.40;4.03;;;7.90;18.50;;;;;;5071692;28;20459;-77
2022/09/21 06:25:33;;;;;;;6.53;5.40;;;8.00;1.00;;;;;;5072905;28;21033;-77
2022/09/21 06:28:03;;;;;;;5.53;4.90;;;8.00;8.70;;;;;;5073425;28;20454;-78
2022/09/21 06:30:33;;;;;;;4.93;4.50;;;8.10;1.00;;;;;;5072293;28;20455;-77
2022/09/21 06:33:02;;;;;;;5.03;4.63;;;8.20;1.00;;;;;;5068854;28;20932;-77
2022/09/21 06:35:33;;;;;;;5.83;5.10;;;8.20;1.00;;;;;;5075391;28;20486;-79
2022/09/21 06:38:03;;;;;;;6.87;4.53;;;8.30;99.90;;;;;;5071308;28;20568;-78
2022/09/21 06:40:33;;;;;;;5.13;4.77;;;8.20;99.90;;;;;;5077754;28;20466;-78
2022/09/21 06:43:02;;;;;;;5.50;5.00;;;8.30;99.90;;;;;;5072430;28;20455;-78
2022/09/21 06:45:31;;;;;;;6.07;5.50;;;8.40;99.90;;;;;;5078254;28;20502;-77
2022/09/21 06:47:59;;;;;;;9.37;4.90;;;8.50;99.90;;;;;;5091047;28;20461;-78
2022/09/21 06:50:27;;;;;;;10.17;6.67;;;8.50;99.90;;;;;;5075214;28;20444;-78
2022/09/21 06:53:01;;;;;;;5.87;5.27;;;8.60;99.90;;;;;;5087887;28;20459;-77
2022/09/21 06:55:30;;;;;;;5.80;5.20;;;8.60;99.90;;;;;;5085212;28;20986;-78
2022/09/21 06:58:01;;;;;;;7.77;5.90;;;8.70;99.90;;;;;;5090040;28;20462;-77
2022/09/21 07:00:30;;;;;;;6.80;6.23;;;8.70;1.00;;;;;;5086485;28;20451;-78
2022/09/21 07:02:58;;;;;;;6.10;5.60;;;8.80;1.00;;;;;;5082378;28;20463;-77
2022/09/21 07:05:27;;;;;;;7.27;6.10;;;9.00;99.90;;;;;;5085893;28;20476;-78
2022/09/21 07:07:58;;;;;;;8.00;6.00;;;9.10;99.90;;;;;;5076235;28;20523;-79
2022/09/21 07:10:27;;;;;;;8.10;6.43;;;9.20;1.00;;;;;;5079689;28;20479;-78
2022/09/21 07:12:55;;;;;;;8.90;6.03;;;9.20;99.90;;;;;;5080633;28;20467;-78
2022/09/21 07:15:24;;;;;;;7.47;6.77;;;9.20;1.00;;;;;;5078439;28;21375;-78
2022/09/21 07:17:52;;;;;;;6.70;6.20;;;9.30;99.90;;;;;;5082038;28;20473;-77
2022/09/21 07:20:32;;;;;;;7.43;6.63;;;9.50;99.90;;;;;;5085929;28;20507;-78
2022/09/21 07:23:10;;;;;;;9.50;6.13;;;9.60;99.90;;;;;;5077013;28;20460;-77
2022/09/21 07:25:38;;;;;;;7.90;7.10;;;9.70;99.90;;;;;;5083948;28;21062;-78
2022/09/21 07:28:07;;;;;;;8.07;6.40;;;9.80;99.90;;;;;;5092225;28;20458;-79
2022/09/21 07:30:37;;;;;;;6.40;5.70;;;9.90;1.00;;;;;;5093768;28;20452;-78
2022/09/21 07:33:05;;;;;;;10.07;4.67;;;10.10;1.00;;;;;;5093303;28;20463;-77
2022/09/21 07:35:34;;;;;;;7.13;4.17;;;10.20;99.90;;;;;;5084771;28;20530;-77
2022/09/21 07:38:07;;;;;;;4.70;4.27;;;10.40;99.90;;;;;;5080673;28;20481;-78
2022/09/21 07:40:35;;;;;;;4.33;3.57;;;10.60;99.90;;;;;;5081173;28;20627;-78
2022/09/21 07:43:03;;;;;;;7.57;4.37;;;10.90;1.00;;;;;;5089026;28;20968;-78
2022/09/21 07:45:31;;;;;;;5.27;4.30;;;11.30;1.00;;;;;;5085015;28;20596;-78
2022/09/21 07:48:03;;;;;;;5.10;4.70;;;11.60;1.00;;;;;;5089170;28;20858;-78
2022/09/21 07:50:32;;;;;;;4.40;4.20;;;12.00;1.00;;;;;;5082834;28;21100;-78
2022/09/21 07:53:00;;;;;;;5.47;5.07;;;12.50;99.90;;;;;;5078393;28;20531;-78
2022/09/21 07:55:30;;;;;;;7.73;5.33;;;12.80;1.00;;;;;;5082992;28;20491;-79
2022/09/21 08:00:44;;;;;;;5.73;5.50;;;13.50;1.00;;;;;;5075487;28;20507;-79
2022/09/21 08:03:12;;;;;;;5.87;5.37;;;13.80;1.00;;;;;;5074364;28;20472;-78
2022/09/21 08:05:40;;;;;;;5.00;4.63;;;14.20;99.90;;;;;;5074521;28;21046;-79
2022/09/21 08:08:09;;;;;;;5.03;4.80;;;14.60;99.90;;;;;;5077932;28;20462;-79
2022/09/21 08:10:38;;;;;;;4.53;4.10;;;14.90;99.90;;;;;;5072569;28;20465;-78
2022/09/21 08:13:06;;;;;;;4.77;4.40;;;15.20;99.90;;;;;;5073113;28;20452;-79
2022/09/21 08:15:34;;;;;;;4.50;4.20;;;15.30;99.90;;;;;;5071112;28;21042;-78
2022/09/21 08:18:17;;;;;;;4.27;3.70;;;15.60;99.90;;;;;;5070218;28;20478;-79
2022/09/21 08:20:54;;;;;;;3.60;3.40;;;16.10;99.90;;;;;;5069660;28;20485;-79
2022/09/21 08:23:22;;;;;;;3.17;2.93;;;16.10;99.90;;;;;;5073355;28;20453;-78
2022/09/21 08:25:52;;;;;;;3.00;2.67;;;16.10;99.90;;;;;;5080399;28;20467;-79
2022/09/21 08:28:20;;;;;;;3.67;2.63;;;16.30;99.90;;;;;;5076813;28;20457;-79
2022/09/21 08:30:49;;;;;;;2.50;2.30;;;16.40;99.90;;;;;;5082134;28;20949;-79
2022/09/21 08:33:17;;;;;;;2.83;2.73;;;16.70;99.90;;;;;;5070209;28;20460;-78
2022/09/21 08:35:52;;;;;;;2.83;2.50;;;16.80;99.90;;;;;;5072197;28;21157;-79
2022/09/21 08:38:20;;;;;;;2.10;2.00;;;17.00;99.90;;;;;;5073293;28;20464;-79
2022/09/21 08:40:49;;;;;;;3.43;2.20;;;17.20;99.90;;;;;;5067463;28;20570;-79
2022/09/21 08:43:28;;;;;;;2.10;1.80;;;17.10;99.90;;;;;;5085519;28;20548;-78
2022/09/21 08:45:59;;;;;;;2.20;1.90;;;17.20;99.90;;;;;;5077546;28;20452;-78
2022/09/21 08:48:31;;;;;;;1.50;1.50;;;17.30;99.90;;;;;;5077971;28;20446;-79
2022/09/21 08:51:07;;;;;;;1.90;1.63;;;17.70;99.90;;;;;;5079331;28;20455;-78
2022/09/21 08:53:38;;;;;;;1.73;1.60;;;17.70;99.90;;;;;;5077430;28;20879;-79
2022/09/21 08:56:09;;;;;;;2.10;1.67;;;17.60;99.90;;;;;;5072071;28;20476;-79
2022/09/21 08:58:39;;;;;;;2.40;1.97;;;17.90;99.90;;;;;;5075813;28;20491;-79
2022/09/21 09:01:32;;;;;;;1.63;1.40;;;17.90;99.90;;;;;;5073408;28;21275;-80
2022/09/21 09:04:22;;;;;;;3.17;1.53;;;18.10;99.90;;;;;;5070561;28;20479;-80
2022/09/21 09:07:02;;;;;;;1.60;1.50;;;18.30;99.90;;;;;;5070796;28;20537;-81
2022/09/21 09:09:56;;;;;;;3.00;2.17;;;18.20;99.90;;;;;;5070122;28;20510;-79
2022/09/21 09:12:43;;;;;;;2.07;1.93;;;18.30;99.90;;;;;;5077315;28;20445;-79
2022/09/21 09:15:34;;;;;;;1.80;1.40;;;18.50;99.90;;;;;;5071039;28;20489;-79
2022/09/21 09:18:09;;;;;;;1.33;1.30;;;18.70;99.90;;;;;;5071698;28;20460;-79
2022/09/21 09:20:40;;;;;;;2.70;1.20;;;18.20;99.90;;;;;;5071954;28;20476;-79
2022/09/21 09:23:14;;;;;;;1.57;1.20;;;18.60;99.90;;;;;;5070510;28;20520;-79
2022/09/21 09:25:45;;;;;;;1.33;1.30;;;18.50;99.90;;;;;;5071599;28;20456;-79
2022/09/21 09:28:28;;;;;;;2.13;1.70;;;18.60;99.90;;;;;;5072867;28;20474;-81
2022/09/21 09:31:03;;;;;;;1.50;1.40;;;18.90;99.90;;;;;;5071741;28;20446;-79
2022/09/21 09:33:46;;;;;;;1.83;1.53;;;19.00;99.90;;;;;;5075316;28;20531;-80
2022/09/21 09:36:14;;;;;;;1.50;1.40;;;19.20;99.90;;;;;;5070802;28;20433;-81
2022/09/21 09:38:46;;;;;;;1.40;1.30;;;18.90;99.90;;;;;;5071456;28;20270;-80
2022/09/21 09:41:37;;;;;;;5.33;1.50;;;19.10;99.90;;;;;;5070095;28;20511;-81
2022/09/21 09:44:23;;;;;;;3.80;1.50;;;19.40;99.90;;;;;;5080082;28;20570;-81
2022/09/21 09:47:04;;;;;;;1.50;1.40;;;19.50;99.90;;;;;;5080553;28;20446;-81
2022/09/21 09:49:41;;;;;;;2.93;1.50;;;19.40;99.90;;;;;;5076782;28;20451;-81
2022/09/21 09:52:13;;;;;;;3.17;1.20;;;19.40;99.90;;;;;;5079881;28;20460;-80
2022/09/21 09:54:41;;;;;;;1.30;1.20;;;19.40;99.90;;;;;;5091078;28;20464;-81
2022/09/21 09:57:10;;;;;;;2.40;1.60;;;19.30;99.90;;;;;;5089069;28;20480;-82
2022/09/21 09:59:43;;;;;;;1.30;1.20;;;19.40;99.90;;;;;;5079631;28;20861;-80
2022/09/21 10:02:22;;;;;;;1.57;1.30;;;19.40;99.90;;;;;;5076528;28;20507;-81
2022/09/21 10:05:00;;;;;;;1.60;1.30;;;19.50;99.90;;;;;;5082963;28;20995;-80
2022/09/21 10:07:35;;;;;;;3.13;1.30;;;19.70;99.90;;;;;;5083658;28;20441;-81
2022/09/21 10:10:21;;;;;;;2.27;1.20;;;19.60;99.90;;;;;;5083834;28;20529;-82
2022/09/21 10:12:52;;;;;;;2.50;1.10;;;19.90;99.90;;;;;;5079461;28;20448;-80
2022/09/21 10:15:23;;;;;;;4.97;1.80;;;19.90;99.90;;;;;;5077265;28;20469;-80
2022/09/21 10:18:14;;;;;;;1.60;1.10;;;19.80;99.90;;;;;;5075467;28;20848;-81
2022/09/21 10:20:54;;;;;;;3.77;1.10;;;19.50;99.90;;;;;;5077208;28;20535;-80
2022/09/21 10:23:23;;;;;;;1.20;1.00;;;19.60;99.90;;;;;;5086617;28;20459;-80
2022/09/21 10:26:01;;;;;;;1.50;1.17;;;19.60;99.90;;;;;;5081586;28;20485;-81
2022/09/21 10:28:30;;;;;;;1.50;1.30;;;19.90;99.90;;;;;;5084265;28;20465;-80
2022/09/21 10:31:17;;;;;;;1.33;1.10;;;20.10;99.90;;;;;;5088337;28;20450;-80
2022/09/21 10:33:51;;;;;;;2.00;0.97;;;19.80;99.90;;;;;;5072451;28;20476;-80
2022/09/21 10:36:32;;;;;;;1.17;1.10;;;19.70;99.90;;;;;;5074336;28;20469;-81
2022/09/21 10:39:19;;;;;;;2.70;1.00;;;19.90;99.90;;;;;;5087357;28;20446;-81
2022/09/21 10:41:50;;;;;;;1.43;1.20;;;19.50;99.90;;;;;;5080193;28;20445;-81
2022/09/21 10:44:20;;;;;;;1.63;1.33;;;19.60;99.90;;;;;;5080388;28;20480;-80
2022/09/21 10:46:49;;;;;;;1.27;1.20;;;19.70;99.90;;;;;;5069366;28;20558;-81
2022/09/21 10:49:24;;;;;;;1.80;1.10;;;19.70;99.90;;;;;;5078473;28;21013;-80
2022/09/21 10:51:56;;;;;;;1.40;1.30;;;20.00;99.90;;;;;;5068485;28;20485;-80
2022/09/21 10:54:30;;;;;;;1.30;1.20;;;20.10;99.90;;;;;;5066533;28;20505;-80
2022/09/21 10:57:02;;;;;;;1.20;1.20;;;20.00;99.90;;;;;;5072540;28;20454;-80
2022/09/21 10:59:32;;;;;;;1.50;1.33;;;20.10;99.90;;;;;;5076155;28;20971;-80
2022/09/21 11:02:01;;;;;;;1.33;1.23;;;20.10;99.90;;;;;;5085434;28;20554;-80
2022/09/21 11:04:42;;;;;;;1.10;1.10;;;19.70;99.90;;;;;;5073860;28;20485;-80
2022/09/21 11:07:18;;;;;;;1.20;1.10;;;19.30;99.90;;;;;;5079558;28;20488;-81
2022/09/21 11:09:54;;;;;;;2.30;1.33;;;19.40;99.90;;;;;;5077954;28;20452;-79
2022/09/21 11:12:34;;;;;;;1.50;1.10;;;19.30;99.90;;;;;;5082309;28;20462;-80
2022/09/21 11:15:14;;;;;;;1.90;1.27;;;19.30;99.90;;;;;;5086116;28;20465;-80
2022/09/21 11:17:48;;;;;;;1.77;1.10;;;19.30;99.90;;;;;;5086705;28;20456;-80
2022/09/21 11:20:27;;;;;;;1.87;1.30;;;19.00;99.90;;;;;;5077257;28;21090;-79
2022/09/21 11:23:04;;;;;;;5.23;1.10;;;19.00;99.90;;;;;;5079776;28;20559;-80
2022/09/21 11:25:41;;;;;;;1.73;1.10;;;19.00;99.90;;;;;;5081516;28;20479;-80
2022/09/21 11:28:15;;;;;;;4.60;1.50;;;19.00;99.90;;;;;;5071220;28;20515;-81
2022/09/21 11:30:56;;;;;;;2.80;1.67;;;18.70;99.90;;;;;;5075458;28;20558;-79
2022/09/21 11:33:40;;;;;;;2.50;1.13;;;18.80;99.90;;;;;;5075567;28;20451;-80
2022/09/21 11:36:17;;;;;;;1.67;1.30;;;18.70;99.90;;;;;;5074530;28;21260;-80
2022/09/21 11:38:58;;;;;;;3.33;1.27;;;18.80;99.90;;;;;;5070919;28;20456;-80
2022/09/21 11:41:41;;;;;;;1.23;1.00;;;18.70;99.90;;;;;;5072906;28;20545;-80
2022/09/21 11:44:21;;;;;;;2.20;1.13;;;18.50;99.90;;;;;;5077924;28;20544;-82
2022/09/21 11:46:59;;;;;;;1.27;1.17;;;18.70;99.90;;;;;;5071359;28;21286;-81
2022/09/21 11:49:43;;;;;;;1.30;1.20;;;18.70;99.90;;;;;;5077308;28;20450;-80
2022/09/21 11:52:23;;;;;;;1.37;1.37;;;18.60;99.90;;;;;;5075011;28;20867;-79
2022/09/21 11:55:13;;;;;;;1.30;1.20;;;18.90;99.90;;;;;;5075660;28;20519;-80
2022/09/21 11:57:48;;;;;;;1.50;1.20;;;19.00;99.90;;;;;;5073033;28;20562;-81
2022/09/21 12:00:24;;;;;;;1.70;1.00;;;19.00;99.90;;;;;;5074252;28;20489;-80
2022/09/21 12:03:20;;;;;;;1.03;1.03;;;18.60;99.90;;;;;;5078201;28;20470;-79
2022/09/21 12:06:10;;;;;;;1.33;1.17;;;18.90;99.90;;;;;;5073352;28;20459;-80
2022/09/21 12:09:00;;;;;;;1.00;1.00;;;19.20;99.90;;;;;;5077540;28;20448;-80
2022/09/21 12:11:42;;;;;;;1.47;1.07;;;18.90;99.90;;;;;;5074696;28;20452;-81
2022/09/21 12:14:21;;;;;;;0.90;0.90;;;19.00;99.90;;;;;;5075291;28;20470;-81
2022/09/21 12:16:57;;;;;;;1.47;1.00;;;19.10;99.90;;;;;;5079709;28;20471;-84
2022/09/21 12:19:34;;;;;;;1.23;0.90;;;19.20;99.90;;;;;;5074516;28;20507;-83
2022/09/21 12:22:07;;;;;;;1.00;1.00;;;19.30;99.90;;;;;;5080282;28;20476;-83
2022/09/21 12:24:40;;;;;;;1.00;1.00;;;19.40;99.90;;;;;;5071549;28;20482;-83
2022/09/21 12:27:14;;;;;;;2.13;1.70;;;19.20;99.90;;;;;;5077354;28;20464;-82
2022/09/21 12:29:46;;;;;;;1.70;1.17;;;19.30;99.90;;;;;;5076056;28;20457;-82
2022/09/21 12:32:21;;;;;;;1.47;1.37;;;19.40;99.90;;;;;;5071482;28;20516;-78
2022/09/21 12:34:55;;;;;;;1.97;1.10;;;19.50;99.90;;;;;;5074457;28;20510;-83
2022/09/21 12:37:26;;;;;;;1.10;1.10;;;19.40;99.90;;;;;;5079979;28;20524;-84
2022/09/21 12:40:02;;;;;;;1.73;1.63;;;19.40;99.90;;;;;;5081543;28;20450;-84
2022/09/21 12:42:38;;;;;;;2.20;1.20;;;19.40;99.90;;;;;;5080040;28;20481;-83
2022/09/21 12:45:14;;;;;;;2.10;1.10;;;19.30;99.90;;;;;;5080910;28;20517;-84
2022/09/21 12:47:52;;;;;;;1.30;1.20;;;19.20;99.90;;;;;;5090626;28;21005;-83
2022/09/21 12:50:25;;;;;;;1.00;1.00;;;19.30;99.90;;;;;;5075019;28;20875;-83
2022/09/21 12:52:55;;;;;;;1.17;1.10;;;19.50;99.90;;;;;;5085980;28;21038;-85
2022/09/21 12:55:44;;;;;;;1.13;1.00;;;19.50;99.90;;;;;;5081080;28;20474;-83
2022/09/21 12:58:29;;;;;;;1.50;1.00;;;19.10;99.90;;;;;;5078126;28;20458;-84
2022/09/21 13:01:05;;;;;;;4.33;1.10;;;19.20;99.90;;;;;;5075446;28;20573;-84
2022/09/21 13:03:41;;;;;;;1.60;1.50;;;19.40;99.90;;;;;;5072958;28;20452;-83
2022/09/21 13:06:34;;;;;;;1.03;1.03;;;19.50;99.90;;;;;;5074253;28;20460;-83
2022/09/21 13:09:04;;;;;;;1.67;1.20;;;19.50;99.90;;;;;;5074433;28;20481;-84
2022/09/21 13:11:51;;;;;;;2.57;1.23;;;19.60;99.90;;;;;;5082996;28;20830;-84
2022/09/21 13:14:19;;;;;;;3.10;1.10;;;19.70;99.90;;;;;;5088015;28;20542;-83
2022/09/21 13:16:56;;;;;;;1.03;1.03;;;19.70;99.90;;;;;;5068920;28;20458;-84
2022/09/21 13:19:26;;;;;;;1.53;1.00;;;19.60;99.90;;;;;;5075624;28;20462;-84
2022/09/21 13:22:14;;;;;;;2.00;0.90;;;19.60;99.90;;;;;;5079604;28;20462;-83
2022/09/21 13:24:44;;;;;;;0.87;0.87;;;19.70;99.90;;;;;;5077025;28;20562;-83
2022/09/21 13:27:14;;;;;;;6.17;1.40;;;19.70;99.90;;;;;;5087518;28;22213;-83
2022/09/21 13:29:44;;;;;;;10.97;1.80;;;19.60;99.90;;;;;;5078394;28;20446;-82
2022/09/21 13:32:24;;;;;;;1.63;1.10;;;19.50;99.90;;;;;;5072197;28;21024;-83